sensor_id;sensor_type;location;lat;lon;timestamp;P1;durP1;ratioP1;P2;durP2;ratioP2
81912;SDS011;71377;50.698;7.164;2024-01-30T00:00:07;13.57;;;9.85;;
81912;SDS011;71377;50.698;7.164;2024-01-30T00:02:34;17.17;;;10.15;;
81912;SDS011;71377;50.698;7.164;2024-01-30T00:05:01;12.35;;;9.15;;
81912;SDS011;71377;50.698;7.164;2024-01-30T00:07:27;13.10;;;8.65;;
81912;SDS011;71377;50.698;7.164;2024-01-30T00:09:54;12.25;;;8.88;;
81912;SDS011;71377;50.698;7.164;2024-01-30T00:12:21;11.20;;;8.15;;
81912;SDS011;71377;50.698;7.164;2024-01-30T00:14:47;14.48;;;9.23;;
81912;SDS011;71377;50.698;7.164;2024-01-30T00:17:17;14.90;;;9.07;;
81912;SDS011;71377;50.698;7.164;2024-01-30T00:19:45;12.20;;;9.30;;
81912;SDS011;71377;50.698;7.164;2024-01-30T00:22:11;14.35;;;8.68;;
81912;SDS011;71377;50.698;7.164;2024-01-30T00:24:38;13.52;;;9.75;;
81912;SDS011;71377;50.698;7.164;2024-01-30T00:27:04;14.52;;;9.13;;
81912;SDS011;71377;50.698;7.164;2024-01-30T00:29:31;11.50;;;8.88;;
81912;SDS011;71377;50.698;7.164;2024-01-30T00:31:59;14.65;;;9.18;;
81912;SDS011;71377;50.698;7.164;2024-01-30T00:34:26;13.43;;;9.00;;
81912;SDS011;71377;50.698;7.164;2024-01-30T00:36:52;13.60;;;9.10;;
81912;SDS011;71377;50.698;7.164;2024-01-30T00:39:19;13.73;;;9.23;;
81912;SDS011;71377;50.698;7.164;2024-01-30T00:41:45;14.05;;;9.38;;
81912;SDS011;71377;50.698;7.164;2024-01-30T00:44:12;11.68;;;9.05;;
81912;SDS011;71377;50.698;7.164;2024-01-30T00:46:38;10.98;;;9.40;;
81912;SDS011;71377;50.698;7.164;2024-01-30T00:49:05;14.20;;;8.60;;
81912;SDS011;71377;50.698;7.164;2024-01-30T00:51:31;10.98;;;7.57;;
81912;SDS011;71377;50.698;7.164;2024-01-30T00:53:58;11.25;;;8.18;;
81912;SDS011;71377;50.698;7.164;2024-01-30T00:56:24;14.65;;;7.82;;
81912;SDS011;71377;50.698;7.164;2024-01-30T00:58:51;14.52;;;8.88;;
81912;SDS011;71377;50.698;7.164;2024-01-30T01:01:17;13.02;;;8.70;;
81912;SDS011;71377;50.698;7.164;2024-01-30T01:03:44;12.43;;;7.82;;
81912;SDS011;71377;50.698;7.164;2024-01-30T01:06:10;12.88;;;8.75;;
81912;SDS011;71377;50.698;7.164;2024-01-30T01:08:37;14.30;;;8.23;;
81912;SDS011;71377;50.698;7.164;2024-01-30T01:11:03;12.30;;;8.27;;
81912;SDS011;71377;50.698;7.164;2024-01-30T01:13:30;13.13;;;8.55;;
81912;SDS011;71377;50.698;7.164;2024-01-30T01:15:56;15.18;;;8.70;;
81912;SDS011;71377;50.698;7.164;2024-01-30T01:18:22;11.30;;;8.65;;
81912;SDS011;71377;50.698;7.164;2024-01-30T01:20:49;11.30;;;9.00;;
81912;SDS011;71377;50.698;7.164;2024-01-30T01:23:15;16.83;;;9.43;;
81912;SDS011;71377;50.698;7.164;2024-01-30T01:25:42;12.40;;;8.75;;
81912;SDS011;71377;50.698;7.164;2024-01-30T01:28:08;12.90;;;8.75;;
81912;SDS011;71377;50.698;7.164;2024-01-30T01:30:34;14.45;;;9.57;;
81912;SDS011;71377;50.698;7.164;2024-01-30T01:33:01;13.63;;;8.55;;
81912;SDS011;71377;50.698;7.164;2024-01-30T01:35:28;13.70;;;8.63;;
81912;SDS011;71377;50.698;7.164;2024-01-30T01:37:55;13.75;;;8.63;;
81912;SDS011;71377;50.698;7.164;2024-01-30T01:40:25;15.60;;;9.00;;
81912;SDS011;71377;50.698;7.164;2024-01-30T01:42:52;15.50;;;9.07;;
81912;SDS011;71377;50.698;7.164;2024-01-30T01:45:20;12.38;;;8.25;;
81912;SDS011;71377;50.698;7.164;2024-01-30T01:47:48;14.40;;;8.40;;
81912;SDS011;71377;50.698;7.164;2024-01-30T01:50:17;11.55;;;8.13;;
81912;SDS011;71377;50.698;7.164;2024-01-30T01:52:49;12.20;;;8.52;;
81912;SDS011;71377;50.698;7.164;2024-01-30T01:55:16;12.27;;;8.32;;
81912;SDS011;71377;50.698;7.164;2024-01-30T01:57:48;12.18;;;8.35;;
81912;SDS011;71377;50.698;7.164;2024-01-30T02:00:14;12.10;;;8.45;;
81912;SDS011;71377;50.698;7.164;2024-01-30T02:02:41;10.95;;;8.35;;
81912;SDS011;71377;50.698;7.164;2024-01-30T02:05:11;13.30;;;8.70;;
81912;SDS011;71377;50.698;7.164;2024-01-30T02:07:38;13.55;;;8.50;;
81912;SDS011;71377;50.698;7.164;2024-01-30T02:10:05;12.43;;;8.50;;
81912;SDS011;71377;50.698;7.164;2024-01-30T02:12:31;12.43;;;8.77;;
81912;SDS011;71377;50.698;7.164;2024-01-30T02:14:58;12.95;;;8.55;;
81912;SDS011;71377;50.698;7.164;2024-01-30T02:17:24;13.75;;;9.05;;
81912;SDS011;71377;50.698;7.164;2024-01-30T02:19:51;13.68;;;9.25;;
81912;SDS011;71377;50.698;7.164;2024-01-30T02:22:18;12.15;;;8.82;;
81912;SDS011;71377;50.698;7.164;2024-01-30T02:24:46;14.20;;;9.13;;
81912;SDS011;71377;50.698;7.164;2024-01-30T02:27:12;12.77;;;9.13;;
81912;SDS011;71377;50.698;7.164;2024-01-30T02:29:39;12.95;;;8.85;;
81912;SDS011;71377;50.698;7.164;2024-01-30T02:32:05;14.63;;;9.90;;
81912;SDS011;71377;50.698;7.164;2024-01-30T02:34:32;15.77;;;9.55;;
81912;SDS011;71377;50.698;7.164;2024-01-30T02:36:59;16.67;;;9.90;;
81912;SDS011;71377;50.698;7.164;2024-01-30T02:39:25;12.60;;;9.25;;
81912;SDS011;71377;50.698;7.164;2024-01-30T02:41:51;19.17;;;9.65;;
81912;SDS011;71377;50.698;7.164;2024-01-30T02:44:18;13.13;;;10.02;;
81912;SDS011;71377;50.698;7.164;2024-01-30T02:46:44;12.05;;;9.55;;
81912;SDS011;71377;50.698;7.164;2024-01-30T02:49:10;14.23;;;9.48;;
81912;SDS011;71377;50.698;7.164;2024-01-30T02:51:37;13.75;;;9.45;;
81912;SDS011;71377;50.698;7.164;2024-01-30T02:54:03;12.00;;;9.20;;
81912;SDS011;71377;50.698;7.164;2024-01-30T02:56:30;13.57;;;9.48;;
81912;SDS011;71377;50.698;7.164;2024-01-30T02:58:56;11.40;;;9.32;;
81912;SDS011;71377;50.698;7.164;2024-01-30T03:01:23;16.20;;;9.15;;
81912;SDS011;71377;50.698;7.164;2024-01-30T03:03:50;14.40;;;9.70;;
81912;SDS011;71377;50.698;7.164;2024-01-30T03:06:17;11.15;;;9.23;;
81912;SDS011;71377;50.698;7.164;2024-01-30T03:08:46;14.63;;;9.15;;
81912;SDS011;71377;50.698;7.164;2024-01-30T03:11:12;14.88;;;9.40;;
81912;SDS011;71377;50.698;7.164;2024-01-30T03:13:38;10.88;;;8.63;;
81912;SDS011;71377;50.698;7.164;2024-01-30T03:16:05;12.48;;;8.77;;
81912;SDS011;71377;50.698;7.164;2024-01-30T03:18:32;16.23;;;9.57;;
81912;SDS011;71377;50.698;7.164;2024-01-30T03:20:58;12.13;;;8.82;;
81912;SDS011;71377;50.698;7.164;2024-01-30T03:23:24;14.50;;;9.32;;
81912;SDS011;71377;50.698;7.164;2024-01-30T03:25:51;11.82;;;8.98;;
81912;SDS011;71377;50.698;7.164;2024-01-30T03:28:17;13.18;;;8.88;;
81912;SDS011;71377;50.698;7.164;2024-01-30T03:30:44;12.80;;;8.40;;
81912;SDS011;71377;50.698;7.164;2024-01-30T03:33:10;12.13;;;8.35;;
81912;SDS011;71377;50.698;7.164;2024-01-30T03:35:37;13.82;;;9.38;;
81912;SDS011;71377;50.698;7.164;2024-01-30T03:38:03;11.98;;;8.70;;
81912;SDS011;71377;50.698;7.164;2024-01-30T03:40:30;11.55;;;8.55;;
81912;SDS011;71377;50.698;7.164;2024-01-30T03:42:56;13.57;;;8.82;;
81912;SDS011;71377;50.698;7.164;2024-01-30T03:45:23;11.52;;;8.55;;
81912;SDS011;71377;50.698;7.164;2024-01-30T03:47:49;11.25;;;8.32;;
81912;SDS011;71377;50.698;7.164;2024-01-30T03:50:15;10.80;;;8.57;;
81912;SDS011;71377;50.698;7.164;2024-01-30T03:52:42;15.50;;;8.98;;
81912;SDS011;71377;50.698;7.164;2024-01-30T03:55:08;12.20;;;8.90;;
81912;SDS011;71377;50.698;7.164;2024-01-30T03:57:35;13.70;;;9.10;;
81912;SDS011;71377;50.698;7.164;2024-01-30T04:00:01;13.27;;;8.15;;
81912;SDS011;71377;50.698;7.164;2024-01-30T04:02:31;15.52;;;8.45;;
81912;SDS011;71377;50.698;7.164;2024-01-30T04:04:57;11.45;;;8.40;;
81912;SDS011;71377;50.698;7.164;2024-01-30T04:07:24;12.25;;;8.05;;
81912;SDS011;71377;50.698;7.164;2024-01-30T04:09:51;11.00;;;8.80;;
81912;SDS011;71377;50.698;7.164;2024-01-30T04:12:17;11.60;;;8.18;;
81912;SDS011;71377;50.698;7.164;2024-01-30T04:14:44;12.00;;;8.95;;
81912;SDS011;71377;50.698;7.164;2024-01-30T04:17:10;10.75;;;8.45;;
81912;SDS011;71377;50.698;7.164;2024-01-30T04:19:37;11.70;;;8.82;;
81912;SDS011;71377;50.698;7.164;2024-01-30T04:22:04;10.70;;;8.30;;
81912;SDS011;71377;50.698;7.164;2024-01-30T04:24:31;12.60;;;8.15;;
81912;SDS011;71377;50.698;7.164;2024-01-30T04:27:00;11.50;;;8.55;;
81912;SDS011;71377;50.698;7.164;2024-01-30T04:29:26;11.95;;;8.73;;
81912;SDS011;71377;50.698;7.164;2024-01-30T04:31:52;15.23;;;9.10;;
81912;SDS011;71377;50.698;7.164;2024-01-30T04:34:19;11.43;;;8.77;;
81912;SDS011;71377;50.698;7.164;2024-01-30T04:36:46;11.90;;;8.52;;
81912;SDS011;71377;50.698;7.164;2024-01-30T04:39:12;12.80;;;8.73;;
81912;SDS011;71377;50.698;7.164;2024-01-30T04:41:39;13.13;;;9.00;;
81912;SDS011;71377;50.698;7.164;2024-01-30T04:44:05;15.18;;;8.45;;
81912;SDS011;71377;50.698;7.164;2024-01-30T04:46:32;11.27;;;8.32;;
81912;SDS011;71377;50.698;7.164;2024-01-30T04:49:00;12.95;;;9.80;;
81912;SDS011;71377;50.698;7.164;2024-01-30T04:51:27;13.35;;;8.80;;
81912;SDS011;71377;50.698;7.164;2024-01-30T04:53:53;12.85;;;9.27;;
81912;SDS011;71377;50.698;7.164;2024-01-30T04:56:20;13.05;;;9.27;;
81912;SDS011;71377;50.698;7.164;2024-01-30T04:58:46;16.83;;;8.98;;
81912;SDS011;71377;50.698;7.164;2024-01-30T05:01:16;13.82;;;8.90;;
81912;SDS011;71377;50.698;7.164;2024-01-30T05:03:43;14.00;;;9.80;;
81912;SDS011;71377;50.698;7.164;2024-01-30T05:06:10;12.98;;;9.73;;
81912;SDS011;71377;50.698;7.164;2024-01-30T05:08:36;14.48;;;9.48;;
81912;SDS011;71377;50.698;7.164;2024-01-30T05:11:04;13.35;;;9.20;;
81912;SDS011;71377;50.698;7.164;2024-01-30T05:13:31;11.52;;;9.15;;
81912;SDS011;71377;50.698;7.164;2024-01-30T05:15:58;14.25;;;10.18;;
81912;SDS011;71377;50.698;7.164;2024-01-30T05:18:24;12.55;;;9.27;;
81912;SDS011;71377;50.698;7.164;2024-01-30T05:20:51;13.23;;;9.40;;
81912;SDS011;71377;50.698;7.164;2024-01-30T05:23:17;14.10;;;9.40;;
81912;SDS011;71377;50.698;7.164;2024-01-30T05:25:44;14.23;;;9.57;;
81912;SDS011;71377;50.698;7.164;2024-01-30T05:28:10;13.32;;;8.82;;
81912;SDS011;71377;50.698;7.164;2024-01-30T05:30:37;12.70;;;9.52;;
81912;SDS011;71377;50.698;7.164;2024-01-30T05:33:03;15.18;;;9.48;;
81912;SDS011;71377;50.698;7.164;2024-01-30T05:35:30;14.77;;;9.90;;
81912;SDS011;71377;50.698;7.164;2024-01-30T05:37:57;15.45;;;10.00;;
81912;SDS011;71377;50.698;7.164;2024-01-30T05:40:23;11.82;;;9.43;;
81912;SDS011;71377;50.698;7.164;2024-01-30T05:42:50;12.18;;;8.50;;
81912;SDS011;71377;50.698;7.164;2024-01-30T05:45:16;15.13;;;9.30;;
81912;SDS011;71377;50.698;7.164;2024-01-30T05:47:43;13.25;;;8.95;;
81912;SDS011;71377;50.698;7.164;2024-01-30T05:50:09;13.20;;;9.40;;
81912;SDS011;71377;50.698;7.164;2024-01-30T05:52:36;12.32;;;9.13;;
81912;SDS011;71377;50.698;7.164;2024-01-30T05:55:02;12.40;;;8.48;;
81912;SDS011;71377;50.698;7.164;2024-01-30T05:57:29;14.27;;;9.32;;
81912;SDS011;71377;50.698;7.164;2024-01-30T05:59:56;11.43;;;8.40;;
81912;SDS011;71377;50.698;7.164;2024-01-30T06:02:22;14.90;;;9.43;;
81912;SDS011;71377;50.698;7.164;2024-01-30T06:04:48;14.73;;;9.73;;
81912;SDS011;71377;50.698;7.164;2024-01-30T06:07:15;12.23;;;9.30;;
81912;SDS011;71377;50.698;7.164;2024-01-30T06:09:42;15.50;;;9.57;;
81912;SDS011;71377;50.698;7.164;2024-01-30T06:12:08;12.70;;;9.23;;
81912;SDS011;71377;50.698;7.164;2024-01-30T06:14:34;13.55;;;9.52;;
81912;SDS011;71377;50.698;7.164;2024-01-30T06:17:01;12.45;;;9.23;;
81912;SDS011;71377;50.698;7.164;2024-01-30T06:19:27;16.00;;;9.10;;
81912;SDS011;71377;50.698;7.164;2024-01-30T06:21:54;13.77;;;9.45;;
81912;SDS011;71377;50.698;7.164;2024-01-30T06:24:20;13.30;;;8.77;;
81912;SDS011;71377;50.698;7.164;2024-01-30T06:26:47;17.10;;;9.65;;
81912;SDS011;71377;50.698;7.164;2024-01-30T06:29:13;15.30;;;9.32;;
81912;SDS011;71377;50.698;7.164;2024-01-30T06:31:44;15.00;;;9.60;;
81912;SDS011;71377;50.698;7.164;2024-01-30T06:34:10;15.43;;;9.95;;
81912;SDS011;71377;50.698;7.164;2024-01-30T06:36:38;14.50;;;10.18;;
81912;SDS011;71377;50.698;7.164;2024-01-30T06:39:04;18.17;;;9.80;;
81912;SDS011;71377;50.698;7.164;2024-01-30T06:41:31;15.82;;;10.25;;
81912;SDS011;71377;50.698;7.164;2024-01-30T06:43:58;15.27;;;10.38;;
81912;SDS011;71377;50.698;7.164;2024-01-30T06:46:24;16.35;;;10.15;;
81912;SDS011;71377;50.698;7.164;2024-01-30T06:48:51;17.95;;;10.52;;
81912;SDS011;71377;50.698;7.164;2024-01-30T06:51:17;12.43;;;9.60;;
81912;SDS011;71377;50.698;7.164;2024-01-30T06:53:44;14.15;;;9.88;;
81912;SDS011;71377;50.698;7.164;2024-01-30T06:56:10;16.10;;;9.00;;
81912;SDS011;71377;50.698;7.164;2024-01-30T06:58:37;14.23;;;9.82;;
81912;SDS011;71377;50.698;7.164;2024-01-30T07:01:03;11.40;;;9.00;;
81912;SDS011;71377;50.698;7.164;2024-01-30T07:03:30;11.93;;;9.27;;
81912;SDS011;71377;50.698;7.164;2024-01-30T07:05:56;12.57;;;9.35;;
81912;SDS011;71377;50.698;7.164;2024-01-30T07:08:23;14.77;;;9.98;;
81912;SDS011;71377;50.698;7.164;2024-01-30T07:10:49;12.75;;;9.38;;
81912;SDS011;71377;50.698;7.164;2024-01-30T07:13:16;16.10;;;9.73;;
81912;SDS011;71377;50.698;7.164;2024-01-30T07:15:42;14.57;;;9.95;;
81912;SDS011;71377;50.698;7.164;2024-01-30T07:18:09;13.32;;;8.82;;
81912;SDS011;71377;50.698;7.164;2024-01-30T07:20:36;13.88;;;9.55;;
81912;SDS011;71377;50.698;7.164;2024-01-30T07:23:02;15.88;;;9.82;;
81912;SDS011;71377;50.698;7.164;2024-01-30T07:25:29;12.63;;;9.60;;
81912;SDS011;71377;50.698;7.164;2024-01-30T07:27:56;14.70;;;10.00;;
81912;SDS011;71377;50.698;7.164;2024-01-30T07:30:23;17.88;;;10.18;;
81912;SDS011;71377;50.698;7.164;2024-01-30T07:32:49;13.50;;;9.90;;
81912;SDS011;71377;50.698;7.164;2024-01-30T07:35:16;15.65;;;9.85;;
81912;SDS011;71377;50.698;7.164;2024-01-30T07:37:42;15.02;;;9.75;;
81912;SDS011;71377;50.698;7.164;2024-01-30T07:40:09;15.15;;;10.23;;
81912;SDS011;71377;50.698;7.164;2024-01-30T07:42:36;14.40;;;10.07;;
81912;SDS011;71377;50.698;7.164;2024-01-30T07:45:02;13.00;;;9.90;;
81912;SDS011;71377;50.698;7.164;2024-01-30T07:47:29;16.52;;;10.15;;
81912;SDS011;71377;50.698;7.164;2024-01-30T07:49:55;13.77;;;9.45;;
81912;SDS011;71377;50.698;7.164;2024-01-30T07:52:22;16.60;;;10.50;;
81912;SDS011;71377;50.698;7.164;2024-01-30T07:54:49;14.50;;;10.35;;
81912;SDS011;71377;50.698;7.164;2024-01-30T07:57:16;18.98;;;10.23;;
81912;SDS011;71377;50.698;7.164;2024-01-30T07:59:45;15.70;;;10.57;;
81912;SDS011;71377;50.698;7.164;2024-01-30T08:02:12;11.30;;;9.13;;
81912;SDS011;71377;50.698;7.164;2024-01-30T08:04:41;15.02;;;9.70;;
81912;SDS011;71377;50.698;7.164;2024-01-30T08:07:08;13.30;;;9.77;;
81912;SDS011;71377;50.698;7.164;2024-01-30T08:09:35;17.80;;;9.77;;
81912;SDS011;71377;50.698;7.164;2024-01-30T08:12:02;16.17;;;9.65;;
81912;SDS011;71377;50.698;7.164;2024-01-30T08:14:28;13.95;;;9.50;;
81912;SDS011;71377;50.698;7.164;2024-01-30T08:16:55;13.07;;;9.40;;
81912;SDS011;71377;50.698;7.164;2024-01-30T08:19:21;12.77;;;8.75;;
81912;SDS011;71377;50.698;7.164;2024-01-30T08:21:48;13.07;;;8.60;;
81912;SDS011;71377;50.698;7.164;2024-01-30T08:24:15;14.45;;;9.73;;
81912;SDS011;71377;50.698;7.164;2024-01-30T08:26:41;13.73;;;9.52;;
81912;SDS011;71377;50.698;7.164;2024-01-30T08:29:08;15.40;;;10.23;;
81912;SDS011;71377;50.698;7.164;2024-01-30T08:31:34;12.32;;;9.88;;
81912;SDS011;71377;50.698;7.164;2024-01-30T08:34:01;13.82;;;9.57;;
81912;SDS011;71377;50.698;7.164;2024-01-30T08:36:28;14.57;;;9.30;;
81912;SDS011;71377;50.698;7.164;2024-01-30T08:38:54;11.43;;;8.98;;
81912;SDS011;71377;50.698;7.164;2024-01-30T08:41:27;12.05;;;9.15;;
81912;SDS011;71377;50.698;7.164;2024-01-30T08:43:53;12.35;;;9.30;;
81912;SDS011;71377;50.698;7.164;2024-01-30T08:46:20;12.85;;;9.55;;
81912;SDS011;71377;50.698;7.164;2024-01-30T08:48:47;13.30;;;10.15;;
81912;SDS011;71377;50.698;7.164;2024-01-30T08:51:14;14.80;;;10.05;;
81912;SDS011;71377;50.698;7.164;2024-01-30T08:53:41;18.58;;;11.30;;
81912;SDS011;71377;50.698;7.164;2024-01-30T08:56:07;14.77;;;10.32;;
81912;SDS011;71377;50.698;7.164;2024-01-30T08:58:34;13.48;;;9.63;;
81912;SDS011;71377;50.698;7.164;2024-01-30T09:01:01;16.60;;;9.80;;
81912;SDS011;71377;50.698;7.164;2024-01-30T09:03:27;14.55;;;10.88;;
81912;SDS011;71377;50.698;7.164;2024-01-30T09:05:54;12.00;;;9.98;;
81912;SDS011;71377;50.698;7.164;2024-01-30T09:08:20;14.15;;;9.68;;
81912;SDS011;71377;50.698;7.164;2024-01-30T09:10:47;14.40;;;10.00;;
81912;SDS011;71377;50.698;7.164;2024-01-30T09:13:15;13.00;;;9.48;;
81912;SDS011;71377;50.698;7.164;2024-01-30T09:15:42;11.77;;;8.68;;
81912;SDS011;71377;50.698;7.164;2024-01-30T09:18:09;13.02;;;9.95;;
81912;SDS011;71377;50.698;7.164;2024-01-30T09:20:35;12.95;;;9.20;;
81912;SDS011;71377;50.698;7.164;2024-01-30T09:23:02;12.98;;;9.32;;
81912;SDS011;71377;50.698;7.164;2024-01-30T09:25:29;13.32;;;9.52;;
81912;SDS011;71377;50.698;7.164;2024-01-30T09:27:55;16.50;;;9.38;;
81912;SDS011;71377;50.698;7.164;2024-01-30T09:30:21;15.10;;;9.82;;
81912;SDS011;71377;50.698;7.164;2024-01-30T09:32:48;13.43;;;9.65;;
81912;SDS011;71377;50.698;7.164;2024-01-30T09:35:14;12.35;;;8.70;;
81912;SDS011;71377;50.698;7.164;2024-01-30T09:37:41;13.10;;;9.05;;
81912;SDS011;71377;50.698;7.164;2024-01-30T09:40:08;10.98;;;8.43;;
81912;SDS011;71377;50.698;7.164;2024-01-30T09:42:35;13.13;;;9.13;;
81912;SDS011;71377;50.698;7.164;2024-01-30T09:45:03;13.57;;;9.10;;
81912;SDS011;71377;50.698;7.164;2024-01-30T09:47:31;15.68;;;9.05;;
81912;SDS011;71377;50.698;7.164;2024-01-30T09:50:06;14.18;;;9.45;;
81912;SDS011;71377;50.698;7.164;2024-01-30T09:52:33;12.05;;;8.52;;
81912;SDS011;71377;50.698;7.164;2024-01-30T09:54:59;11.57;;;8.52;;
81912;SDS011;71377;50.698;7.164;2024-01-30T09:57:27;12.52;;;9.00;;
81912;SDS011;71377;50.698;7.164;2024-01-30T09:59:54;15.07;;;8.77;;
81912;SDS011;71377;50.698;7.164;2024-01-30T10:02:20;14.57;;;9.30;;
81912;SDS011;71377;50.698;7.164;2024-01-30T10:04:48;15.95;;;9.10;;
81912;SDS011;71377;50.698;7.164;2024-01-30T10:07:16;13.63;;;8.77;;
81912;SDS011;71377;50.698;7.164;2024-01-30T10:09:43;14.65;;;8.90;;
81912;SDS011;71377;50.698;7.164;2024-01-30T10:12:10;12.95;;;9.23;;
81912;SDS011;71377;50.698;7.164;2024-01-30T10:14:41;12.93;;;9.15;;
81912;SDS011;71377;50.698;7.164;2024-01-30T10:17:08;13.80;;;8.98;;
81912;SDS011;71377;50.698;7.164;2024-01-30T10:19:49;12.88;;;9.40;;
81912;SDS011;71377;50.698;7.164;2024-01-30T10:22:17;14.35;;;8.55;;
81912;SDS011;71377;50.698;7.164;2024-01-30T10:24:45;13.13;;;8.75;;
81912;SDS011;71377;50.698;7.164;2024-01-30T10:27:12;10.35;;;7.57;;
81912;SDS011;71377;50.698;7.164;2024-01-30T10:29:38;13.40;;;8.60;;
81912;SDS011;71377;50.698;7.164;2024-01-30T10:32:05;16.00;;;8.88;;
81912;SDS011;71377;50.698;7.164;2024-01-30T10:34:32;11.15;;;8.68;;
81912;SDS011;71377;50.698;7.164;2024-01-30T10:37:04;10.18;;;8.20;;
81912;SDS011;71377;50.698;7.164;2024-01-30T10:39:38;12.90;;;9.07;;
81912;SDS011;71377;50.698;7.164;2024-01-30T10:42:07;15.23;;;8.80;;
81912;SDS011;71377;50.698;7.164;2024-01-30T10:47:49;13.27;;;8.63;;
81912;SDS011;71377;50.698;7.164;2024-01-30T10:50:16;14.95;;;8.02;;
81912;SDS011;71377;50.698;7.164;2024-01-30T10:52:43;12.07;;;7.47;;
81912;SDS011;71377;50.698;7.164;2024-01-30T10:55:10;9.60;;;7.78;;
81912;SDS011;71377;50.698;7.164;2024-01-30T10:57:37;14.80;;;8.02;;
81912;SDS011;71377;50.698;7.164;2024-01-30T11:00:11;11.55;;;7.95;;
81912;SDS011;71377;50.698;7.164;2024-01-30T11:02:42;13.70;;;7.88;;
81912;SDS011;71377;50.698;7.164;2024-01-30T11:05:11;11.82;;;7.97;;
81912;SDS011;71377;50.698;7.164;2024-01-30T11:07:41;10.52;;;7.80;;
81912;SDS011;71377;50.698;7.164;2024-01-30T11:10:08;11.75;;;8.30;;
81912;SDS011;71377;50.698;7.164;2024-01-30T11:12:39;12.73;;;8.30;;
81912;SDS011;71377;50.698;7.164;2024-01-30T11:15:12;10.23;;;8.32;;
81912;SDS011;71377;50.698;7.164;2024-01-30T11:17:41;12.68;;;8.02;;
81912;SDS011;71377;50.698;7.164;2024-01-30T11:20:15;11.57;;;7.95;;
81912;SDS011;71377;50.698;7.164;2024-01-30T11:22:51;11.23;;;8.20;;
81912;SDS011;71377;50.698;7.164;2024-01-30T11:25:20;13.20;;;8.13;;
81912;SDS011;71377;50.698;7.164;2024-01-30T11:27:52;13.88;;;8.80;;
81912;SDS011;71377;50.698;7.164;2024-01-30T11:30:29;12.27;;;8.52;;
81912;SDS011;71377;50.698;7.164;2024-01-30T11:32:58;11.80;;;8.45;;
81912;SDS011;71377;50.698;7.164;2024-01-30T11:35:25;15.90;;;9.07;;
81912;SDS011;71377;50.698;7.164;2024-01-30T11:37:52;14.50;;;8.52;;
81912;SDS011;71377;50.698;7.164;2024-01-30T11:40:18;14.10;;;8.85;;
81912;SDS011;71377;50.698;7.164;2024-01-30T11:42:47;15.18;;;8.60;;
81912;SDS011;71377;50.698;7.164;2024-01-30T11:45:15;11.73;;;8.43;;
81912;SDS011;71377;50.698;7.164;2024-01-30T11:47:42;12.65;;;8.85;;
81912;SDS011;71377;50.698;7.164;2024-01-30T11:50:10;13.32;;;8.23;;
81912;SDS011;71377;50.698;7.164;2024-01-30T11:52:37;16.27;;;8.23;;
81912;SDS011;71377;50.698;7.164;2024-01-30T11:55:04;12.68;;;7.65;;
81912;SDS011;71377;50.698;7.164;2024-01-30T11:57:31;10.90;;;7.88;;
81912;SDS011;71377;50.698;7.164;2024-01-30T11:59:57;12.63;;;8.10;;
81912;SDS011;71377;50.698;7.164;2024-01-30T12:02:24;12.68;;;8.00;;
81912;SDS011;71377;50.698;7.164;2024-01-30T12:04:50;14.60;;;7.18;;
81912;SDS011;71377;50.698;7.164;2024-01-30T12:07:16;11.93;;;6.47;;
81912;SDS011;71377;50.698;7.164;2024-01-30T12:09:51;12.27;;;7.68;;
81912;SDS011;71377;50.698;7.164;2024-01-30T12:12:19;10.93;;;7.47;;
81912;SDS011;71377;50.698;7.164;2024-01-30T12:14:45;11.73;;;7.40;;
81912;SDS011;71377;50.698;7.164;2024-01-30T12:17:22;13.30;;;7.40;;
81912;SDS011;71377;50.698;7.164;2024-01-30T12:19:49;12.65;;;7.78;;
81912;SDS011;71377;50.698;7.164;2024-01-30T12:22:16;13.82;;;7.55;;
81912;SDS011;71377;50.698;7.164;2024-01-30T12:24:42;13.55;;;7.65;;
81912;SDS011;71377;50.698;7.164;2024-01-30T12:27:09;15.23;;;7.45;;
81912;SDS011;71377;50.698;7.164;2024-01-30T12:29:35;9.27;;;7.03;;
81912;SDS011;71377;50.698;7.164;2024-01-30T12:32:06;15.32;;;8.00;;
81912;SDS011;71377;50.698;7.164;2024-01-30T12:34:32;15.55;;;7.45;;
81912;SDS011;71377;50.698;7.164;2024-01-30T12:37:11;11.18;;;6.47;;
81912;SDS011;71377;50.698;7.164;2024-01-30T12:39:38;10.43;;;7.20;;
81912;SDS011;71377;50.698;7.164;2024-01-30T12:42:04;11.20;;;7.03;;
81912;SDS011;71377;50.698;7.164;2024-01-30T12:44:31;11.73;;;7.88;;
81912;SDS011;71377;50.698;7.164;2024-01-30T12:46:58;13.30;;;8.32;;
81912;SDS011;71377;50.698;7.164;2024-01-30T12:49:24;10.35;;;7.38;;
81912;SDS011;71377;50.698;7.164;2024-01-30T12:51:51;10.95;;;7.30;;
81912;SDS011;71377;50.698;7.164;2024-01-30T12:54:17;12.20;;;7.82;;
81912;SDS011;71377;50.698;7.164;2024-01-30T12:56:44;11.20;;;7.45;;
81912;SDS011;71377;50.698;7.164;2024-01-30T12:59:10;8.27;;;6.80;;
81912;SDS011;71377;50.698;7.164;2024-01-30T13:01:36;11.27;;;6.63;;
81912;SDS011;71377;50.698;7.164;2024-01-30T13:04:03;9.52;;;6.82;;
81912;SDS011;71377;50.698;7.164;2024-01-30T13:06:30;10.30;;;6.97;;
81912;SDS011;71377;50.698;7.164;2024-01-30T13:08:56;10.10;;;7.40;;
81912;SDS011;71377;50.698;7.164;2024-01-30T13:11:24;9.02;;;7.00;;
81912;SDS011;71377;50.698;7.164;2024-01-30T13:13:51;10.20;;;7.18;;
81912;SDS011;71377;50.698;7.164;2024-01-30T13:16:18;13.10;;;7.75;;
81912;SDS011;71377;50.698;7.164;2024-01-30T13:18:44;12.55;;;7.35;;
81912;SDS011;71377;50.698;7.164;2024-01-30T13:21:11;12.05;;;7.30;;
81912;SDS011;71377;50.698;7.164;2024-01-30T13:23:37;11.18;;;7.55;;
81912;SDS011;71377;50.698;7.164;2024-01-30T13:26:04;10.73;;;7.70;;
81912;SDS011;71377;50.698;7.164;2024-01-30T13:28:30;10.30;;;7.63;;
81912;SDS011;71377;50.698;7.164;2024-01-30T13:30:57;12.07;;;7.38;;
81912;SDS011;71377;50.698;7.164;2024-01-30T13:33:24;13.75;;;7.70;;
81912;SDS011;71377;50.698;7.164;2024-01-30T13:35:51;11.43;;;7.20;;
81912;SDS011;71377;50.698;7.164;2024-01-30T13:38:17;10.30;;;7.53;;
81912;SDS011;71377;50.698;7.164;2024-01-30T13:40:44;11.63;;;7.63;;
81912;SDS011;71377;50.698;7.164;2024-01-30T13:43:10;14.73;;;7.90;;
81912;SDS011;71377;50.698;7.164;2024-01-30T13:45:38;11.85;;;7.47;;
81912;SDS011;71377;50.698;7.164;2024-01-30T13:48:04;9.93;;;7.20;;
81912;SDS011;71377;50.698;7.164;2024-01-30T13:50:31;11.52;;;7.30;;
81912;SDS011;71377;50.698;7.164;2024-01-30T13:52:59;10.75;;;7.18;;
81912;SDS011;71377;50.698;7.164;2024-01-30T13:55:27;12.50;;;7.18;;
81912;SDS011;71377;50.698;7.164;2024-01-30T13:57:53;11.77;;;7.47;;
81912;SDS011;71377;50.698;7.164;2024-01-30T14:00:20;10.13;;;7.05;;
81912;SDS011;71377;50.698;7.164;2024-01-30T14:02:48;9.95;;;7.03;;
81912;SDS011;71377;50.698;7.164;2024-01-30T14:05:15;11.65;;;7.32;;
81912;SDS011;71377;50.698;7.164;2024-01-30T14:07:42;11.35;;;7.18;;
81912;SDS011;71377;50.698;7.164;2024-01-30T14:10:09;9.63;;;6.45;;
81912;SDS011;71377;50.698;7.164;2024-01-30T14:12:41;12.73;;;7.20;;
81912;SDS011;71377;50.698;7.164;2024-01-30T14:15:11;9.52;;;7.13;;
81912;SDS011;71377;50.698;7.164;2024-01-30T14:17:52;11.40;;;6.80;;
81912;SDS011;71377;50.698;7.164;2024-01-30T14:20:19;11.00;;;7.18;;
81912;SDS011;71377;50.698;7.164;2024-01-30T14:22:45;12.95;;;7.38;;
81912;SDS011;71377;50.698;7.164;2024-01-30T14:25:12;11.05;;;6.65;;
81912;SDS011;71377;50.698;7.164;2024-01-30T14:27:38;11.45;;;7.22;;
81912;SDS011;71377;50.698;7.164;2024-01-30T14:30:05;10.23;;;7.45;;
81912;SDS011;71377;50.698;7.164;2024-01-30T14:32:32;11.57;;;7.07;;
81912;SDS011;71377;50.698;7.164;2024-01-30T14:34:59;10.77;;;7.25;;